createdAt,value
2024-04-10T00:01:46.966Z,5.88
2024-04-10T00:04:14.764Z,8.23
2024-04-10T00:06:41.977Z,8.80
2024-04-10T00:09:09.356Z,6.45
2024-04-10T00:11:36.758Z,6.80
2024-04-10T00:14:04.149Z,11.05
2024-04-10T00:16:31.489Z,7.07
2024-04-10T00:18:59.019Z,12.68
2024-04-10T00:21:28.579Z,13.13
2024-04-10T00:23:55.783Z,11.43
2024-04-10T00:26:22.949Z,7.85
2024-04-10T00:28:50.263Z,9.35
2024-04-10T00:31:18.080Z,7.68
2024-04-10T00:33:45.393Z,8.65
2024-04-10T00:36:12.800Z,7.90
2024-04-10T00:38:40.180Z,6.90
2024-04-10T00:41:08.393Z,11.82
2024-04-10T00:43:35.973Z,6.50
2024-04-10T00:46:23.837Z,8.25
2024-04-10T00:48:52.211Z,9.13
2024-04-10T00:51:24.757Z,9.07
2024-04-10T00:53:52.840Z,7.22
2024-04-10T00:56:23.196Z,12.65
2024-04-10T00:58:52.092Z,10.60
2024-04-10T01:01:20.153Z,10.88
2024-04-10T01:03:47.765Z,9.38
2024-04-10T01:06:15.582Z,8.00
2024-04-10T01:08:43.287Z,7.00
2024-04-10T01:11:12.281Z,9.73
2024-04-10T01:13:40.137Z,9.15
2024-04-10T01:16:08.723Z,7.68
2024-04-10T01:18:36.204Z,6.10
2024-04-10T01:21:03.740Z,9.40
2024-04-10T01:23:31.106Z,8.07
2024-04-10T01:25:58.392Z,8.02
2024-04-10T01:28:25.916Z,11.52
2024-04-10T01:30:53.706Z,9.80
2024-04-10T01:33:21.236Z,5.80
2024-04-10T01:35:48.689Z,8.80
2024-04-10T01:38:16.049Z,7.90
2024-04-10T01:40:45.328Z,9.23
2024-04-10T01:43:12.639Z,8.80
2024-04-10T01:45:40.028Z,9.18
2024-04-10T01:48:07.966Z,8.90
2024-04-10T01:50:35.576Z,13.35
2024-04-10T01:53:02.984Z,8.02
2024-04-10T01:55:30.335Z,9.00
2024-04-10T01:57:57.507Z,8.02
2024-04-10T02:00:26.693Z,8.13
2024-04-10T02:02:54.752Z,8.35
2024-04-10T02:05:22.370Z,9.85
2024-04-10T02:07:50.175Z,7.57
2024-04-10T02:10:17.683Z,12.48
2024-04-10T02:12:45.758Z,8.93
2024-04-10T02:15:13.419Z,9.18
2024-04-10T02:17:41.108Z,7.45
2024-04-10T02:20:28.317Z,11.63
2024-04-10T02:22:55.749Z,10.32
2024-04-10T02:25:23.055Z,11.98
2024-04-10T02:27:50.353Z,9.63
2024-04-10T02:30:17.623Z,13.65
2024-04-10T02:32:48.299Z,19.60
2024-04-10T02:35:15.857Z,12.30
2024-04-10T02:37:43.169Z,12.50
2024-04-10T02:40:10.843Z,13.52
2024-04-10T02:42:39.222Z,11.32
2024-04-10T02:45:07.193Z,15.07
2024-04-10T02:47:34.495Z,15.48
2024-04-10T02:50:01.911Z,15.82
2024-04-10T02:52:32.226Z,9.27
2024-04-10T02:54:59.397Z,13.48
2024-04-10T02:57:26.711Z,13.27
2024-04-10T02:59:53.970Z,11.35
2024-04-10T03:02:21.284Z,11.00
2024-04-10T03:04:48.599Z,10.32
2024-04-10T03:07:17.197Z,13.02
2024-04-10T03:09:45.025Z,10.20
2024-04-10T03:12:13.459Z,18.38
2024-04-10T03:14:44.072Z,15.47
2024-04-10T03:17:17.087Z,18.30
2024-04-10T03:19:44.450Z,9.50
2024-04-10T03:22:12.639Z,16.10
2024-04-10T03:24:40.175Z,12.80
2024-04-10T03:27:07.436Z,10.30
2024-04-10T03:29:34.792Z,14.02
2024-04-10T03:32:03.083Z,14.40
2024-04-10T03:34:30.408Z,12.20
2024-04-10T03:36:57.654Z,13.50
2024-04-10T03:39:24.983Z,18.38
2024-04-10T03:41:52.188Z,12.18
2024-04-10T03:44:20.525Z,14.88
2024-04-10T03:46:48.602Z,17.73
2024-04-10T03:49:16.307Z,12.03
2024-04-10T03:51:48.161Z,12.82
2024-04-10T03:54:15.467Z,19.13
2024-04-10T03:56:43.620Z,12.75
2024-04-10T03:59:14.846Z,23.17
2024-04-10T04:01:43.860Z,13.93
2024-04-10T04:04:11.408Z,18.67
2024-04-10T04:06:39.149Z,16.88
2024-04-10T04:09:09.556Z,11.25
2024-04-10T04:11:37.777Z,17.10
2024-04-10T04:14:05.378Z,22.53
2024-04-10T04:16:33.242Z,14.02
2024-04-10T04:19:02.262Z,17.60
2024-04-10T04:21:30.120Z,16.95
2024-04-10T04:23:57.360Z,16.15
2024-04-10T04:26:24.723Z,21.58
2024-04-10T04:28:53.273Z,15.52
2024-04-10T04:31:21.156Z,17.10
2024-04-10T04:33:48.540Z,17.67
2024-04-10T04:36:16.190Z,15.73
2024-04-10T04:38:43.641Z,20.42
2024-04-10T04:41:10.852Z,16.98
2024-04-10T04:43:38.264Z,19.70
2024-04-10T04:46:10.958Z,23.80
2024-04-10T04:48:38.453Z,15.80
2024-04-10T04:51:08.870Z,17.33
2024-04-10T04:53:36.343Z,22.15
2024-04-10T04:56:03.846Z,22.95
2024-04-10T04:58:32.968Z,17.30
2024-04-10T05:03:46.569Z,21.80
2024-04-10T05:06:17.541Z,15.27
2024-04-10T05:08:45.428Z,25.25
2024-04-10T05:11:13.989Z,18.58
2024-04-10T05:13:41.425Z,19.10
2024-04-10T05:16:12.127Z,13.48
2024-04-10T05:18:40.236Z,10.98
2024-04-10T05:21:07.829Z,14.38
2024-04-10T05:23:35.053Z,9.00
2024-04-10T05:26:05.970Z,14.88
2024-04-10T05:28:33.941Z,13.00
2024-04-10T05:31:05.008Z,16.02
2024-04-10T05:33:32.361Z,14.48
2024-04-10T05:36:02.797Z,14.45
2024-04-10T05:38:31.592Z,13.07
2024-04-10T05:40:59.791Z,15.25
2024-04-10T05:43:27.218Z,15.00
2024-04-10T05:45:55.198Z,13.45
2024-04-10T05:48:25.835Z,14.60
2024-04-10T05:51:00.270Z,11.32
2024-04-10T05:53:28.158Z,11.43
2024-04-10T05:55:55.536Z,14.18
2024-04-10T05:58:22.895Z,7.38
2024-04-10T06:00:52.186Z,10.02
2024-04-10T06:03:21.270Z,12.10
2024-04-10T06:05:48.975Z,8.15
2024-04-10T06:08:16.800Z,7.85
2024-04-10T06:10:52.026Z,14.73
2024-04-10T06:13:19.435Z,15.43
2024-04-10T06:15:46.652Z,10.18
2024-04-10T06:18:14.002Z,11.27
2024-04-10T06:20:41.466Z,14.82
2024-04-10T06:23:09.058Z,11.30
2024-04-10T06:25:36.373Z,15.18
2024-04-10T06:28:04.526Z,12.10
2024-04-10T06:30:31.714Z,9.95
2024-04-10T06:32:59.244Z,13.07
2024-04-10T06:35:26.583Z,10.73
2024-04-10T06:37:53.977Z,13.00
2024-04-10T06:40:21.652Z,12.52
2024-04-10T06:42:48.969Z,11.48
2024-04-10T06:45:16.323Z,10.38
2024-04-10T06:47:44.260Z,13.95
2024-04-10T06:50:11.630Z,10.65
2024-04-10T06:52:38.914Z,12.90
2024-04-10T06:55:07.998Z,12.65
2024-04-10T06:57:35.440Z,13.43
2024-04-10T07:00:14.571Z,13.57
2024-04-10T07:02:43.409Z,12.73
2024-04-10T07:05:11.312Z,16.20
2024-04-10T07:07:40.680Z,13.05
2024-04-10T07:12:35.817Z,19.45
2024-04-10T07:15:04.172Z,13.07
2024-04-10T07:17:32.780Z,20.77
2024-04-10T07:20:00.352Z,23.08
2024-04-10T07:22:27.880Z,19.92
2024-04-10T07:24:55.170Z,17.80
2024-04-10T07:27:22.446Z,18.45
2024-04-10T07:29:52.585Z,13.25
2024-04-10T07:32:20.025Z,17.95
2024-04-10T07:34:47.275Z,19.08
2024-04-10T07:37:14.573Z,22.50
2024-04-10T07:39:41.958Z,19.92
2024-04-10T07:42:10.662Z,23.25
2024-04-10T07:44:39.660Z,18.20
2024-04-10T07:47:08.016Z,15.45
2024-04-10T07:49:35.454Z,19.23
2024-04-10T07:52:02.729Z,18.88
2024-04-10T07:54:33.146Z,15.50
2024-04-10T07:57:00.461Z,16.92
2024-04-10T07:59:27.928Z,18.70
2024-04-10T08:01:55.583Z,20.20
2024-04-10T08:04:22.935Z,20.65
2024-04-10T08:06:50.309Z,24.10
2024-04-10T08:09:17.449Z,19.58
2024-04-10T08:11:46.211Z,19.73
2024-04-10T08:14:13.940Z,17.75
2024-04-10T08:16:41.449Z,16.30
2024-04-10T08:19:08.802Z,14.60
2024-04-10T08:21:37.823Z,16.05
2024-04-10T08:24:05.363Z,20.05
2024-04-10T08:26:35.560Z,13.80
2024-04-10T08:30:24.945Z,13.90
2024-04-10T08:32:52.486Z,12.82
2024-04-10T08:35:19.962Z,13.80
2024-04-10T08:37:47.416Z,12.77
2024-04-10T08:40:14.749Z,14.15
2024-04-10T08:42:43.283Z,12.05
2024-04-10T08:45:15.048Z,12.13
2024-04-10T08:47:45.494Z,10.00
2024-04-10T08:50:12.936Z,7.40
2024-04-10T08:52:41.881Z,8.30
2024-04-10T08:55:09.698Z,10.10
2024-04-10T08:57:37.098Z,8.10
2024-04-10T09:00:05.705Z,8.82
2024-04-10T09:02:36.391Z,12.70
2024-04-10T09:05:04.499Z,17.85
2024-04-10T09:07:32.007Z,10.48
2024-04-10T09:10:12.371Z,10.13
2024-04-10T09:12:39.744Z,6.53
2024-04-10T09:15:15.334Z,7.97
2024-04-10T09:17:44.725Z,7.18
2024-04-10T09:20:19.338Z,5.40
2024-04-10T09:22:59.000Z,5.63
2024-04-10T09:25:26.698Z,7.60
2024-04-10T09:28:01.765Z,7.50
2024-04-10T09:30:29.114Z,7.32
2024-04-10T09:32:57.858Z,6.18
2024-04-10T09:35:29.425Z,7.38
2024-04-10T09:37:59.615Z,3.83
2024-04-10T09:40:28.541Z,7.90
2024-04-10T09:43:05.055Z,5.43
2024-04-10T09:45:39.203Z,3.47
2024-04-10T09:48:10.261Z,8.40
2024-04-10T09:50:39.345Z,5.95
2024-04-10T09:53:09.153Z,9.02
2024-04-10T09:55:41.259Z,3.75
2024-04-10T09:58:11.003Z,5.65
2024-04-10T10:00:38.915Z,6.50
2024-04-10T10:03:11.126Z,5.28
2024-04-10T10:05:42.542Z,5.72
2024-04-10T10:08:15.025Z,2.70
2024-04-10T10:10:53.813Z,9.55
2024-04-10T10:13:30.353Z,4.80
2024-04-10T10:15:59.742Z,5.30
2024-04-10T10:18:34.526Z,4.45
2024-04-10T10:21:08.359Z,6.82
2024-04-10T10:23:41.370Z,3.65
2024-04-10T10:26:10.968Z,7.03
2024-04-10T10:28:38.704Z,3.25
2024-04-10T10:31:13.611Z,3.08
2024-04-10T10:33:43.833Z,2.58
2024-04-10T10:36:11.706Z,5.80
2024-04-10T10:38:39.227Z,6.85
2024-04-10T10:41:17.386Z,4.15
2024-04-10T10:43:46.614Z,2.72
2024-04-10T10:46:14.083Z,4.57
2024-04-10T10:48:43.844Z,3.10
2024-04-10T10:51:11.080Z,2.08
2024-04-10T10:53:38.488Z,7.75
2024-04-10T10:56:06.344Z,8.52
2024-04-10T10:58:34.140Z,2.63
2024-04-10T11:01:07.832Z,3.13
2024-04-10T11:03:35.537Z,2.15
2024-04-10T11:06:13.201Z,4.30
2024-04-10T11:08:40.783Z,3.88
2024-04-10T11:11:10.855Z,7.90
2024-04-10T11:13:51.123Z,5.63
2024-04-10T11:16:29.850Z,6.72
2024-04-10T11:18:57.211Z,2.23
2024-04-10T11:21:25.039Z,4.55
2024-04-10T11:23:52.361Z,1.90
2024-04-10T11:26:20.065Z,2.03
2024-04-10T11:28:54.560Z,3.05
2024-04-10T11:31:22.511Z,3.22
2024-04-10T11:33:50.102Z,3.83
2024-04-10T11:36:17.795Z,6.75
2024-04-10T11:38:45.241Z,5.45
2024-04-10T11:41:14.207Z,3.97
2024-04-10T11:43:41.852Z,3.42
2024-04-10T11:46:10.723Z,5.45
2024-04-10T11:48:41.766Z,5.97
2024-04-10T11:51:09.669Z,5.35
2024-04-10T11:53:37.293Z,2.67
2024-04-10T11:56:05.387Z,1.60
2024-04-10T11:58:32.753Z,3.97
2024-04-10T12:01:00.137Z,6.68
2024-04-10T12:03:27.433Z,2.83
2024-04-10T12:05:55.740Z,1.98
2024-04-10T12:08:23.947Z,6.55
2024-04-10T12:10:52.050Z,4.80
2024-04-10T12:13:20.331Z,2.63
2024-04-10T12:15:47.819Z,4.80
2024-04-10T12:18:15.390Z,3.42
2024-04-10T12:20:43.366Z,4.68
2024-04-10T12:23:13.904Z,3.03
2024-04-10T12:25:42.010Z,4.03
2024-04-10T12:28:09.160Z,6.15
2024-04-10T12:30:37.207Z,3.58
2024-04-10T12:33:04.855Z,1.98
2024-04-10T12:35:50.935Z,3.33
2024-04-10T12:38:18.371Z,5.03
2024-04-10T12:40:57.391Z,2.67
2024-04-10T12:43:24.596Z,11.88
2024-04-10T12:45:52.322Z,8.85
2024-04-10T12:48:19.891Z,5.63
2024-04-10T12:50:54.009Z,3.67
2024-04-10T12:53:21.413Z,4.70
2024-04-10T12:55:55.242Z,3.35
2024-04-10T12:58:22.910Z,5.07
2024-04-10T13:00:54.002Z,5.18
2024-04-10T13:03:25.517Z,3.70
2024-04-10T13:05:58.319Z,4.35
2024-04-10T13:08:27.200Z,6.47
2024-04-10T13:11:07.005Z,2.05
2024-04-10T13:13:37.761Z,4.82
2024-04-10T13:16:07.605Z,5.32
2024-04-10T13:21:21.970Z,6.55
2024-04-10T13:23:49.740Z,3.28
2024-04-10T13:26:17.158Z,7.18
2024-04-10T13:28:50.078Z,5.50
2024-04-10T13:31:24.941Z,3.85
2024-04-10T13:33:57.235Z,4.13
2024-04-10T13:36:25.169Z,8.60
2024-04-10T13:38:53.381Z,3.38
2024-04-10T13:41:23.323Z,4.82
2024-04-10T13:43:52.581Z,8.52
2024-04-10T13:46:20.347Z,6.50
2024-04-10T13:48:48.741Z,5.78
2024-04-10T13:51:27.307Z,6.32
2024-04-10T13:53:56.018Z,6.10
2024-04-10T13:56:23.815Z,5.28
2024-04-10T13:58:51.455Z,5.05
2024-04-10T14:01:23.404Z,7.30
2024-04-10T14:03:56.106Z,7.97
2024-04-10T14:06:26.155Z,4.32
2024-04-10T14:08:55.235Z,3.20
2024-04-10T14:13:52.451Z,13.07
2024-04-10T14:16:20.976Z,11.85
2024-04-10T14:18:48.579Z,15.87
2024-04-10T14:21:16.274Z,4.25
2024-04-10T14:23:47.167Z,4.15
2024-04-10T14:26:17.393Z,6.85
2024-04-10T14:28:45.307Z,4.85
2024-04-10T14:31:13.336Z,9.68
2024-04-10T14:33:42.814Z,8.70
2024-04-10T14:36:11.377Z,8.40
2024-04-10T14:38:39.774Z,10.07
2024-04-10T14:41:08.657Z,6.82
2024-04-10T14:43:37.577Z,9.07
2024-04-10T14:48:38.399Z,6.78
2024-04-10T14:51:07.133Z,5.88
2024-04-10T14:53:34.403Z,5.72
2024-04-10T14:56:17.856Z,3.60
2024-04-10T14:58:45.348Z,4.00
2024-04-10T15:01:17.998Z,4.43
2024-04-10T15:03:46.584Z,4.35
2024-04-10T15:06:15.021Z,2.65
2024-04-10T15:08:43.861Z,5.87
2024-04-10T15:11:21.364Z,7.22
2024-04-10T15:13:48.939Z,8.43
2024-04-10T15:16:16.245Z,8.10
2024-04-10T15:18:43.709Z,5.05
2024-04-10T15:21:11.067Z,6.45
2024-04-10T15:23:38.336Z,2.38
2024-04-10T15:26:07.850Z,5.07
2024-04-10T15:28:35.232Z,3.65
2024-04-10T15:31:10.457Z,5.93
2024-04-10T15:33:40.170Z,7.22
2024-04-10T15:36:11.857Z,10.57
2024-04-10T15:38:42.120Z,4.28
2024-04-10T15:41:11.456Z,3.75
2024-04-10T15:43:39.147Z,4.57
2024-04-10T15:46:11.920Z,5.72
2024-04-10T15:48:39.546Z,5.80
2024-04-10T15:51:12.797Z,4.10
2024-04-10T15:53:40.573Z,11.18
2024-04-10T15:56:10.108Z,6.00
2024-04-10T15:58:39.280Z,7.07
2024-04-10T16:01:09.193Z,6.47
2024-04-10T16:03:39.028Z,5.72
2024-04-10T16:06:10.777Z,5.60
2024-04-10T16:08:38.518Z,10.43
2024-04-10T16:11:11.340Z,10.70
2024-04-10T16:13:39.155Z,4.88
2024-04-10T16:16:07.828Z,7.28
2024-04-10T16:18:36.069Z,8.05
2024-04-10T16:21:08.369Z,9.73
2024-04-10T16:23:37.008Z,8.38
2024-04-10T16:26:08.959Z,6.43
2024-04-10T16:28:37.478Z,7.95
2024-04-10T16:31:06.999Z,7.05
2024-04-10T16:33:35.986Z,8.50
2024-04-10T16:36:05.626Z,3.20
2024-04-10T16:38:32.955Z,5.68
2024-04-10T16:41:01.539Z,6.13
2024-04-10T16:43:29.116Z,8.07
2024-04-10T16:45:57.487Z,4.47
2024-04-10T16:48:25.667Z,8.02
2024-04-10T16:50:57.763Z,8.35
2024-04-10T16:53:25.652Z,6.57
2024-04-10T16:55:53.634Z,9.48
2024-04-10T16:58:21.219Z,16.15
2024-04-10T17:00:49.454Z,46.67
2024-04-10T17:03:16.843Z,9.50
2024-04-10T17:05:44.171Z,7.38
2024-04-10T17:08:12.387Z,5.53
2024-04-10T17:10:40.766Z,10.48
2024-04-10T17:13:08.431Z,9.87
2024-04-10T17:15:35.999Z,7.18
2024-04-10T17:18:22.378Z,9.68
2024-04-10T17:21:19.089Z,9.77
2024-04-10T17:23:47.054Z,9.10
2024-04-10T17:26:14.327Z,14.18
2024-04-10T17:28:41.713Z,11.73
2024-04-10T17:31:09.439Z,7.35
2024-04-10T17:33:37.260Z,11.60
2024-04-10T17:36:09.333Z,9.43
2024-04-10T17:38:36.848Z,14.60
2024-04-10T17:41:06.143Z,18.50
2024-04-10T17:46:07.994Z,13.93
2024-04-10T17:48:37.439Z,14.15
2024-04-10T17:51:11.722Z,15.75
2024-04-10T17:53:39.435Z,12.20
2024-04-10T17:56:07.903Z,11.40
2024-04-10T17:58:38.311Z,14.07
2024-04-10T18:01:08.399Z,9.85
2024-04-10T18:03:37.873Z,11.30
2024-04-10T18:06:05.906Z,13.65
2024-04-10T18:08:33.461Z,14.57
2024-04-10T18:11:02.236Z,21.15
2024-04-10T18:13:48.230Z,14.05
2024-04-10T18:16:15.543Z,13.98
2024-04-10T18:18:43.001Z,11.07
2024-04-10T18:21:10.682Z,15.25
2024-04-10T18:23:43.997Z,12.38
2024-04-10T18:26:12.151Z,9.50
2024-04-10T18:28:41.000Z,9.02
2024-04-10T18:31:09.623Z,7.22
2024-04-10T18:33:38.467Z,5.37
2024-04-10T18:36:08.427Z,5.68
2024-04-10T18:38:36.341Z,6.18
2024-04-10T18:41:06.816Z,10.30
2024-04-10T18:43:38.556Z,7.00
2024-04-10T18:46:09.552Z,10.02
2024-04-10T18:48:41.994Z,6.55
2024-04-10T18:51:18.915Z,9.40
2024-04-10T18:53:47.699Z,9.05
2024-04-10T18:56:15.810Z,9.18
2024-04-10T18:58:44.084Z,7.15
2024-04-10T19:01:11.995Z,8.27
2024-04-10T19:03:43.466Z,9.50
2024-04-10T19:06:13.893Z,9.43
2024-04-10T19:08:44.078Z,13.27
2024-04-10T19:11:14.451Z,7.43
2024-04-10T19:13:42.865Z,8.50
2024-04-10T19:16:10.456Z,9.50
2024-04-10T19:18:38.479Z,10.10
2024-04-10T19:21:06.794Z,9.15
2024-04-10T19:23:34.962Z,7.47
2024-04-10T19:26:03.467Z,9.20
2024-04-10T19:28:33.100Z,8.82
2024-04-10T19:31:05.097Z,5.18
2024-04-10T19:33:35.224Z,5.18
2024-04-10T19:36:07.355Z,6.00
2024-04-10T19:38:35.131Z,5.18
2024-04-10T19:41:09.874Z,17.35
2024-04-10T19:43:43.964Z,13.45
2024-04-10T19:46:12.296Z,12.18
2024-04-10T19:48:40.089Z,6.45
2024-04-10T19:51:07.755Z,5.40
2024-04-10T19:53:36.178Z,10.05
2024-04-10T19:56:11.339Z,4.47
2024-04-10T19:58:41.170Z,7.28
2024-04-10T20:01:11.114Z,11.77
2024-04-10T20:03:42.956Z,6.18
2024-04-10T20:06:11.343Z,6.07
2024-04-10T20:08:41.021Z,5.53
2024-04-10T20:11:10.260Z,6.95
2024-04-10T20:13:38.182Z,7.40
2024-04-10T20:16:10.453Z,9.50
2024-04-10T20:18:40.807Z,7.20
2024-04-10T20:21:14.178Z,10.13
2024-04-10T20:23:42.046Z,5.53
2024-04-10T20:26:10.221Z,6.50
2024-04-10T20:28:37.565Z,8.20
2024-04-10T20:31:05.799Z,9.20
2024-04-10T20:33:34.237Z,5.30
2024-04-10T20:36:02.605Z,6.20
2024-04-10T20:38:30.068Z,4.60
2024-04-10T20:40:58.192Z,8.05
2024-04-10T20:43:25.494Z,5.50
2024-04-10T20:45:57.354Z,7.22
2024-04-10T20:48:30.804Z,4.68
2024-04-10T20:51:07.308Z,7.47
2024-04-10T20:53:35.352Z,7.32
2024-04-10T20:56:07.314Z,8.27
2024-04-10T20:58:35.279Z,5.18
2024-04-10T21:01:07.868Z,5.70
2024-04-10T21:03:37.129Z,7.35
2024-04-10T21:08:56.011Z,5.90
2024-04-10T21:11:43.402Z,4.93
2024-04-10T21:14:30.582Z,8.57
2024-04-10T21:17:17.410Z,7.90
2024-04-10T21:20:03.953Z,11.50
2024-04-10T21:22:50.902Z,6.28
2024-04-10T21:25:48.922Z,7.35
2024-04-10T21:28:35.293Z,6.43
2024-04-10T21:31:25.473Z,8.25
2024-04-10T21:34:11.847Z,6.07
2024-04-10T21:36:57.892Z,5.53
2024-04-10T21:39:44.802Z,7.40
2024-04-10T21:42:30.904Z,8.20
2024-04-10T21:45:16.949Z,10.15
2024-04-10T21:48:02.911Z,6.97
2024-04-10T21:50:48.913Z,6.97
2024-04-10T21:53:34.948Z,8.77
2024-04-10T21:56:25.097Z,6.47
2024-04-10T21:59:11.027Z,7.05
2024-04-10T22:04:47.285Z,7.10
2024-04-10T22:07:35.015Z,7.18
2024-04-10T22:10:02.425Z,7.97
2024-04-10T22:12:31.298Z,5.68
2024-04-10T22:14:58.997Z,4.60
2024-04-10T22:17:45.123Z,6.65
2024-04-10T22:20:31.292Z,5.80
2024-04-10T22:23:17.912Z,8.18
2024-04-10T22:25:54.254Z,7.78
2024-04-10T22:28:23.140Z,4.63
2024-04-10T22:30:51.099Z,9.13
2024-04-10T22:33:20.176Z,6.53
2024-04-10T22:35:58.086Z,7.47
2024-04-10T22:38:25.841Z,7.75
2024-04-10T22:40:53.505Z,8.70
2024-04-10T22:43:24.351Z,14.48
2024-04-10T22:45:52.167Z,7.22
2024-04-10T22:48:19.723Z,4.40
2024-04-10T22:50:47.171Z,6.40
2024-04-10T22:53:16.082Z,8.27
2024-04-10T22:55:43.463Z,4.93
2024-04-10T22:58:11.622Z,9.02
2024-04-10T23:00:39.103Z,10.55
2024-04-10T23:03:06.887Z,7.03
2024-04-10T23:05:45.557Z,6.00
2024-04-10T23:10:49.744Z,6.10
2024-04-10T23:13:17.225Z,8.40
2024-04-10T23:15:44.552Z,12.50
2024-04-10T23:18:20.462Z,7.13
2024-04-10T23:20:53.295Z,5.75
2024-04-10T23:23:20.783Z,7.35
2024-04-10T23:25:50.610Z,6.63
2024-04-10T23:28:17.882Z,4.95
2024-04-10T23:30:45.135Z,6.88
2024-04-10T23:33:12.576Z,7.60
2024-04-10T23:35:39.977Z,6.88
2024-04-10T23:38:07.390Z,9.32
2024-04-10T23:40:34.656Z,6.00
2024-04-10T23:43:02.663Z,5.85
2024-04-10T23:45:30.205Z,5.63
2024-04-10T23:47:57.620Z,4.05
2024-04-10T23:50:25.265Z,4.85
2024-04-10T23:52:52.585Z,5.55
2024-04-10T23:55:20.060Z,6.53
2024-04-10T23:57:47.319Z,9.10
